createdAt,value
2023-11-05T00:00:44.118Z,7.03
2023-11-05T00:03:11.050Z,7.04
2023-11-05T00:05:37.970Z,7.03
2023-11-05T00:08:05.054Z,7.03
2023-11-05T00:10:31.887Z,7.02
2023-11-05T00:12:58.702Z,6.99
2023-11-05T00:15:27.336Z,7.01
2023-11-05T00:17:54.203Z,6.95
2023-11-05T00:20:21.123Z,6.98
2023-11-05T00:22:47.883Z,6.97
2023-11-05T00:25:14.795Z,6.96
2023-11-05T00:27:41.683Z,6.94
2023-11-05T00:30:09.160Z,6.94
2023-11-05T00:32:36.061Z,6.96
2023-11-05T00:35:03.057Z,6.93
2023-11-05T00:37:30.332Z,6.92
2023-11-05T00:39:57.246Z,6.86
2023-11-05T00:42:24.074Z,6.86
2023-11-05T00:44:51.099Z,6.83
2023-11-05T00:47:17.925Z,6.81
2023-11-05T00:49:44.908Z,6.81
2023-11-05T00:52:11.838Z,6.78
2023-11-05T00:54:38.613Z,6.70
2023-11-05T00:57:05.541Z,6.70
2023-11-05T00:59:32.288Z,6.67
2023-11-05T01:01:59.679Z,6.66
2023-11-05T01:04:26.639Z,6.66
2023-11-05T01:06:53.538Z,6.73
2023-11-05T01:09:20.768Z,6.69
2023-11-05T01:11:48.851Z,6.74
2023-11-05T01:14:16.097Z,6.75
2023-11-05T01:16:43.226Z,6.75
2023-11-05T01:19:10.130Z,6.79
2023-11-05T01:21:36.951Z,6.81
2023-11-05T01:24:04.228Z,6.75
2023-11-05T01:26:31.136Z,6.75
2023-11-05T01:28:58.333Z,6.69
2023-11-05T01:31:25.222Z,6.67
2023-11-05T01:33:52.136Z,6.63
2023-11-05T01:36:19.197Z,6.59
2023-11-05T01:38:46.283Z,6.57
2023-11-05T01:41:13.405Z,6.52
2023-11-05T01:43:40.313Z,6.46
2023-11-05T01:46:07.280Z,6.49
2023-11-05T01:48:34.254Z,6.38
2023-11-05T01:51:09.698Z,6.40
2023-11-05T01:53:36.894Z,6.39
2023-11-05T01:56:03.811Z,6.38
2023-11-05T01:58:31.063Z,6.36
2023-11-05T02:00:58.193Z,6.33
2023-11-05T02:03:25.380Z,6.28
2023-11-05T02:05:52.255Z,6.24
2023-11-05T02:08:19.224Z,6.24
2023-11-05T02:10:47.242Z,6.21
2023-11-05T02:13:13.969Z,6.25
2023-11-05T02:15:40.866Z,6.25
2023-11-05T02:18:07.705Z,6.30
2023-11-05T02:20:34.505Z,6.26
2023-11-05T02:23:01.987Z,6.32
2023-11-05T02:25:28.755Z,6.33
2023-11-05T02:27:56.356Z,6.38
2023-11-05T02:30:24.283Z,6.46
2023-11-05T02:32:51.521Z,6.50
2023-11-05T02:35:18.622Z,6.50
2023-11-05T02:37:45.490Z,6.58
2023-11-05T02:40:12.710Z,6.60
2023-11-05T02:42:40.078Z,6.62
2023-11-05T02:45:07.546Z,6.75
2023-11-05T02:47:34.544Z,6.75
2023-11-05T02:50:01.638Z,6.88
2023-11-05T02:52:28.482Z,6.90
2023-11-05T02:54:55.600Z,7.07
2023-11-05T02:57:22.689Z,7.06
2023-11-05T02:59:50.481Z,7.01
2023-11-05T03:02:17.489Z,7.07
2023-11-05T03:04:44.690Z,7.07
2023-11-05T03:07:14.283Z,7.04
2023-11-05T03:09:41.605Z,6.97
2023-11-05T03:12:08.648Z,6.91
2023-11-05T03:14:35.758Z,6.84
2023-11-05T03:17:02.525Z,6.78
2023-11-05T03:19:29.346Z,6.83
2023-11-05T03:21:56.205Z,6.78
2023-11-05T03:24:23.784Z,6.76
2023-11-05T03:26:50.822Z,6.75
2023-11-05T03:29:17.709Z,6.69
2023-11-05T03:31:44.596Z,6.66
2023-11-05T03:34:11.360Z,6.55
2023-11-05T03:36:38.125Z,6.48
2023-11-05T03:39:05.000Z,6.44
2023-11-05T03:41:31.766Z,6.34
2023-11-05T03:43:58.751Z,6.23
2023-11-05T03:46:25.766Z,6.15
2023-11-05T03:48:52.802Z,6.11
2023-11-05T03:51:19.603Z,6.12
2023-11-05T03:53:46.838Z,6.07
2023-11-05T03:56:15.907Z,6.02
2023-11-05T03:58:42.843Z,5.94
2023-11-05T04:01:17.977Z,5.91
2023-11-05T04:03:45.255Z,5.86
2023-11-05T04:06:12.264Z,5.82
2023-11-05T04:08:39.081Z,5.79
2023-11-05T04:11:05.855Z,5.77
2023-11-05T04:13:32.941Z,5.72
2023-11-05T04:16:00.765Z,5.74
2023-11-05T04:18:27.779Z,5.71
2023-11-05T04:20:54.647Z,5.68
2023-11-05T04:23:21.541Z,5.63
2023-11-05T04:25:49.171Z,5.64
2023-11-05T04:28:16.210Z,5.59
2023-11-05T04:30:43.040Z,5.58
2023-11-05T04:33:10.073Z,5.50
2023-11-05T04:35:36.987Z,5.44
2023-11-05T04:38:03.841Z,5.42
2023-11-05T04:40:30.670Z,5.41
2023-11-05T04:42:57.492Z,5.40
2023-11-05T04:45:24.264Z,5.38
2023-11-05T04:47:51.122Z,5.35
2023-11-05T04:50:18.001Z,5.35
2023-11-05T04:52:44.827Z,5.37
2023-11-05T04:55:11.749Z,5.36
2023-11-05T04:57:38.505Z,5.31
2023-11-05T05:00:06.223Z,5.32
2023-11-05T05:02:33.006Z,5.31
2023-11-05T05:04:59.951Z,5.31
2023-11-05T05:07:26.855Z,5.35
2023-11-05T05:09:54.041Z,5.34
2023-11-05T05:12:22.922Z,5.45
2023-11-05T05:14:49.945Z,5.47
2023-11-05T05:17:19.121Z,5.50
2023-11-05T05:19:47.633Z,5.62
2023-11-05T05:22:14.583Z,5.75
2023-11-05T05:24:42.192Z,5.78
2023-11-05T05:27:08.961Z,5.90
2023-11-05T05:29:35.704Z,5.93
2023-11-05T05:32:02.442Z,6.03
2023-11-05T05:34:29.221Z,6.04
2023-11-05T05:36:56.036Z,6.02
2023-11-05T05:39:23.258Z,6.11
2023-11-05T05:41:50.017Z,6.06
2023-11-05T05:44:16.836Z,6.08
2023-11-05T05:46:44.295Z,6.08
2023-11-05T05:49:11.228Z,6.17
2023-11-05T05:51:38.154Z,6.26
2023-11-05T05:54:05.532Z,6.31
2023-11-05T05:56:32.296Z,6.28
2023-11-05T05:58:59.078Z,6.28
2023-11-05T06:01:25.929Z,6.36
2023-11-05T06:03:53.752Z,6.26
2023-11-05T06:06:22.448Z,6.37
2023-11-05T06:08:50.443Z,6.33
2023-11-05T06:11:17.191Z,6.42
2023-11-05T06:13:44.415Z,6.38
2023-11-05T06:16:11.198Z,6.32
2023-11-05T06:18:38.468Z,6.36
2023-11-05T06:21:05.705Z,6.32
2023-11-05T06:23:32.458Z,6.24
2023-11-05T06:25:59.309Z,6.28
2023-11-05T06:28:26.022Z,6.27
2023-11-05T06:30:52.766Z,6.31
2023-11-05T06:33:19.561Z,6.33
2023-11-05T06:35:46.308Z,6.36
2023-11-05T06:38:13.084Z,6.42
2023-11-05T06:40:39.925Z,6.50
2023-11-05T06:43:06.692Z,6.46
2023-11-05T06:45:33.590Z,6.58
2023-11-05T06:48:00.382Z,6.59
2023-11-05T06:50:27.163Z,6.62
2023-11-05T06:52:53.975Z,6.62
2023-11-05T06:55:20.753Z,6.71
2023-11-05T06:57:47.516Z,6.98
2023-11-05T07:00:14.690Z,7.41
2023-11-05T07:02:41.431Z,7.55
2023-11-05T07:05:08.764Z,7.52
2023-11-05T07:07:35.815Z,7.39
2023-11-05T07:10:05.659Z,7.94
2023-11-05T07:12:32.890Z,8.51
2023-11-05T07:15:00.247Z,8.27
2023-11-05T07:17:26.996Z,7.92
2023-11-05T07:19:54.232Z,7.74
2023-11-05T07:22:21.228Z,8.05
2023-11-05T07:24:48.055Z,8.35
2023-11-05T07:27:15.172Z,8.33
2023-11-05T07:29:45.955Z,8.40
2023-11-05T07:32:12.891Z,8.83
2023-11-05T07:34:39.736Z,9.16
2023-11-05T07:37:06.565Z,9.47
2023-11-05T07:39:33.306Z,9.45
2023-11-05T07:42:00.181Z,9.09
2023-11-05T07:44:33.058Z,9.02
2023-11-05T07:46:59.796Z,8.90
2023-11-05T07:49:26.553Z,8.88
2023-11-05T07:51:53.440Z,8.89
2023-11-05T07:54:20.184Z,8.84
2023-11-05T07:56:47.158Z,8.83
2023-11-05T07:59:15.018Z,8.84
2023-11-05T08:01:42.556Z,8.80
2023-11-05T08:04:09.322Z,8.94
2023-11-05T08:06:36.947Z,8.91
2023-11-05T08:09:03.916Z,8.87
2023-11-05T08:11:30.751Z,8.90
2023-11-05T08:13:57.859Z,8.86
2023-11-05T08:16:24.608Z,8.96
2023-11-05T08:18:51.339Z,9.25
2023-11-05T08:21:21.999Z,9.90
2023-11-05T08:23:49.106Z,10.29
2023-11-05T08:26:15.913Z,10.42
2023-11-05T08:28:42.667Z,10.86
2023-11-05T08:31:11.814Z,10.91
2023-11-05T08:33:41.270Z,10.77
2023-11-05T08:36:09.095Z,10.56
2023-11-05T08:38:36.516Z,10.18
2023-11-05T08:41:04.246Z,10.03
2023-11-05T08:43:32.097Z,9.79
2023-11-05T08:45:59.043Z,9.71
2023-11-05T08:48:25.799Z,9.57
2023-11-05T08:50:52.594Z,9.63
2023-11-05T08:53:22.823Z,9.64
2023-11-05T08:55:49.691Z,9.74
2023-11-05T08:58:18.103Z,9.82
2023-11-05T09:00:45.056Z,9.74
2023-11-05T09:03:13.472Z,9.72
2023-11-05T09:05:41.889Z,9.68
2023-11-05T09:08:10.409Z,9.68
2023-11-05T09:10:37.456Z,9.71
2023-11-05T09:13:06.225Z,9.61
2023-11-05T09:15:33.516Z,9.69
2023-11-05T09:18:01.103Z,9.67
2023-11-05T09:20:31.514Z,9.61
2023-11-05T09:23:00.044Z,9.61
2023-11-05T09:25:28.872Z,9.48
2023-11-05T09:27:56.150Z,9.44
2023-11-05T09:30:22.952Z,9.44
2023-11-05T09:32:50.191Z,9.51
2023-11-05T09:35:19.143Z,10.09
2023-11-05T09:37:47.117Z,10.74
2023-11-05T09:40:17.287Z,11.34
2023-11-05T09:43:00.262Z,11.58
2023-11-05T09:45:34.670Z,11.68
2023-11-05T09:48:09.852Z,11.71
2023-11-05T09:50:38.579Z,11.80
2023-11-05T09:53:12.957Z,12.06
2023-11-05T09:55:43.135Z,11.72
2023-11-05T09:58:10.663Z,11.26
2023-11-05T10:00:38.507Z,11.01
2023-11-05T10:03:09.235Z,10.78
2023-11-05T10:05:38.750Z,10.74
2023-11-05T10:08:09.837Z,10.53
2023-11-05T10:10:38.284Z,10.48
2023-11-05T10:13:06.480Z,10.48
2023-11-05T10:15:41.105Z,10.48
2023-11-05T10:18:13.988Z,10.38
2023-11-05T10:20:56.595Z,10.43
2023-11-05T10:23:24.929Z,10.40
2023-11-05T10:25:53.401Z,10.35
2023-11-05T10:28:21.594Z,10.27
2023-11-05T10:30:50.672Z,10.17
2023-11-05T10:33:17.810Z,10.20
2023-11-05T10:35:45.935Z,10.13
2023-11-05T10:38:20.089Z,10.09
2023-11-05T10:40:51.162Z,9.94
2023-11-05T10:43:18.261Z,9.90
2023-11-05T10:45:45.890Z,9.71
2023-11-05T10:48:12.678Z,9.47
2023-11-05T10:50:40.823Z,9.36
2023-11-05T10:53:08.731Z,9.30
2023-11-05T10:55:38.491Z,9.38
2023-11-05T10:58:17.952Z,9.44
2023-11-05T11:00:50.822Z,9.50
2023-11-05T11:03:19.983Z,9.52
2023-11-05T11:05:48.376Z,9.44
2023-11-05T11:08:17.314Z,9.35
2023-11-05T11:10:47.485Z,9.16
2023-11-05T11:13:17.942Z,9.12
2023-11-05T11:15:55.611Z,9.14
2023-11-05T11:18:28.202Z,9.15
2023-11-05T11:20:57.277Z,9.15
2023-11-05T11:23:25.262Z,9.01
2023-11-05T11:26:02.799Z,9.13
2023-11-05T11:28:31.004Z,9.22
2023-11-05T11:30:58.753Z,9.15
2023-11-05T11:33:26.567Z,9.05
2023-11-05T11:35:53.316Z,8.89
2023-11-05T11:38:20.494Z,8.74
2023-11-05T11:40:55.112Z,8.62
2023-11-05T11:43:27.244Z,8.53
2023-11-05T11:45:54.426Z,8.39
2023-11-05T11:48:28.475Z,8.37
2023-11-05T11:51:00.413Z,8.26
2023-11-05T11:53:31.451Z,8.19
2023-11-05T11:55:59.419Z,8.13
2023-11-05T11:58:29.162Z,8.16
2023-11-05T12:00:59.635Z,8.17
2023-11-05T12:03:30.976Z,8.19
2023-11-05T12:06:00.377Z,8.23
2023-11-05T12:08:44.368Z,8.31
2023-11-05T12:11:12.986Z,8.37
2023-11-05T12:13:41.128Z,8.43
2023-11-05T12:16:09.845Z,8.47
2023-11-05T12:18:41.017Z,8.60
2023-11-05T12:21:12.189Z,8.63
2023-11-05T12:23:40.713Z,8.84
2023-11-05T12:26:10.504Z,8.90
2023-11-05T12:28:37.387Z,8.89
2023-11-05T12:31:06.414Z,8.94
2023-11-05T12:33:35.492Z,9.04
2023-11-05T12:36:02.981Z,9.01
2023-11-05T12:38:29.714Z,8.88
2023-11-05T12:40:57.047Z,8.86
2023-11-05T12:43:25.502Z,8.81
2023-11-05T12:45:56.649Z,8.72
2023-11-05T12:48:31.089Z,8.70
2023-11-05T12:50:59.822Z,8.74
2023-11-05T12:53:26.548Z,8.75
2023-11-05T12:56:07.225Z,8.78
2023-11-05T12:58:35.772Z,8.66
2023-11-05T13:01:06.849Z,8.76
2023-11-05T13:03:36.268Z,8.73
2023-11-05T13:06:07.544Z,8.65
2023-11-05T13:08:35.493Z,8.53
2023-11-05T13:11:05.967Z,8.55
2023-11-05T13:13:33.412Z,8.42
2023-11-05T13:16:00.309Z,8.50
2023-11-05T13:18:27.230Z,8.49
2023-11-05T13:20:54.090Z,8.48
2023-11-05T13:23:21.868Z,8.49
2023-11-05T13:25:48.898Z,8.44
2023-11-05T13:28:15.790Z,8.44
2023-11-05T13:30:42.563Z,8.36
2023-11-05T13:33:09.336Z,8.34
2023-11-05T13:35:36.260Z,8.37
2023-11-05T13:38:07.648Z,8.33
2023-11-05T13:40:35.656Z,8.42
2023-11-05T13:43:02.866Z,8.38
2023-11-05T13:45:29.606Z,8.42
2023-11-05T13:47:56.470Z,8.49
2023-11-05T13:50:23.542Z,8.53
2023-11-05T13:52:50.536Z,8.55
2023-11-05T13:55:17.338Z,8.58
2023-11-05T13:57:44.030Z,8.66
2023-11-05T14:00:15.250Z,8.68
2023-11-05T14:02:42.740Z,8.70
2023-11-05T14:05:10.066Z,8.73
2023-11-05T14:07:38.831Z,8.63
2023-11-05T14:10:08.820Z,8.64
2023-11-05T14:12:36.354Z,8.65
2023-11-05T14:15:06.750Z,8.66
2023-11-05T14:17:34.541Z,8.65
2023-11-05T14:20:01.864Z,8.68
2023-11-05T14:22:28.602Z,8.65
2023-11-05T14:24:55.365Z,8.58
2023-11-05T14:27:22.120Z,8.65
2023-11-05T14:29:48.843Z,8.69
2023-11-05T14:32:15.925Z,8.70
2023-11-05T14:34:42.767Z,8.64
2023-11-05T14:37:10.323Z,8.68
2023-11-05T14:39:40.889Z,8.64
2023-11-05T14:42:07.801Z,8.70
2023-11-05T14:44:35.759Z,8.64
2023-11-05T14:47:03.584Z,8.67
2023-11-05T14:49:31.072Z,8.73
2023-11-05T14:52:03.279Z,8.70
2023-11-05T14:54:31.873Z,8.62
2023-11-05T14:56:58.704Z,8.50
2023-11-05T14:59:25.500Z,8.54
2023-11-05T15:01:53.255Z,8.54
2023-11-05T15:04:20.086Z,8.50
2023-11-05T15:06:46.804Z,8.49
2023-11-05T15:09:13.545Z,8.44
2023-11-05T15:11:40.299Z,8.46
2023-11-05T15:14:07.064Z,8.47
2023-11-05T15:16:33.947Z,8.44
2023-11-05T15:19:01.440Z,8.47
2023-11-05T15:21:28.197Z,8.52
2023-11-05T15:23:56.503Z,8.54
2023-11-05T15:26:24.250Z,8.50
2023-11-05T15:28:51.776Z,8.51
2023-11-05T15:31:18.903Z,8.47
2023-11-05T15:33:45.984Z,8.44
2023-11-05T15:36:13.149Z,8.40
2023-11-05T15:38:39.931Z,8.31
2023-11-05T15:41:06.728Z,8.19
2023-11-05T15:43:33.767Z,8.22
2023-11-05T15:46:00.704Z,8.18
2023-11-05T15:48:27.459Z,8.18
2023-11-05T15:50:55.482Z,8.17
2023-11-05T15:53:22.258Z,8.15
2023-11-05T15:55:49.258Z,8.12
2023-11-05T15:58:18.359Z,8.10
2023-11-05T16:00:45.660Z,8.11
2023-11-05T16:03:14.602Z,8.15
2023-11-05T16:05:42.828Z,8.18
2023-11-05T16:08:09.607Z,8.10
2023-11-05T16:10:36.610Z,8.18
2023-11-05T16:13:03.873Z,8.15
2023-11-05T16:15:30.659Z,8.17
2023-11-05T16:17:57.443Z,8.21
2023-11-05T16:20:24.461Z,8.14
2023-11-05T16:22:51.419Z,8.18
2023-11-05T16:25:21.440Z,8.20
2023-11-05T16:27:48.503Z,8.13
2023-11-05T16:30:15.453Z,8.11
2023-11-05T16:32:43.254Z,8.11
2023-11-05T16:35:10.227Z,8.15
2023-11-05T16:37:39.711Z,8.12
2023-11-05T16:40:07.622Z,8.08
2023-11-05T16:42:35.679Z,8.07
2023-11-05T16:45:02.607Z,8.01
2023-11-05T16:47:29.360Z,7.92
2023-11-05T16:49:56.135Z,7.90
2023-11-05T16:52:22.926Z,7.89
2023-11-05T16:54:50.628Z,7.96
2023-11-05T16:57:17.595Z,7.97
2023-11-05T16:59:44.289Z,7.92
2023-11-05T17:02:11.982Z,7.99
2023-11-05T17:04:39.526Z,7.96
2023-11-05T17:07:07.174Z,8.02
2023-11-05T17:09:34.158Z,7.96
2023-11-05T17:12:01.536Z,7.99
2023-11-05T17:14:28.372Z,7.97
2023-11-05T17:16:55.413Z,7.95
2023-11-05T17:19:22.206Z,7.97
2023-11-05T17:21:50.008Z,7.86
2023-11-05T17:24:20.760Z,7.86
2023-11-05T17:26:50.568Z,7.79
2023-11-05T17:29:17.339Z,7.68
2023-11-05T17:31:44.223Z,7.76
2023-11-05T17:34:11.063Z,7.67
2023-11-05T17:36:38.077Z,7.58
2023-11-05T17:39:05.101Z,7.61
2023-11-05T17:41:31.785Z,7.55
2023-11-05T17:43:58.533Z,7.50
2023-11-05T17:46:25.283Z,7.41
2023-11-05T17:48:52.153Z,7.40
2023-11-05T17:51:19.061Z,7.35
2023-11-05T17:53:46.125Z,7.29
2023-11-05T17:56:12.938Z,7.23
2023-11-05T17:58:39.757Z,7.13
2023-11-05T18:01:06.564Z,7.14
2023-11-05T18:03:33.348Z,7.12
2023-11-05T18:06:00.143Z,7.12
2023-11-05T18:08:29.860Z,7.15
2023-11-05T18:10:58.092Z,7.20
2023-11-05T18:13:25.066Z,7.23
2023-11-05T18:15:52.022Z,7.15
2023-11-05T18:18:19.734Z,7.18
2023-11-05T18:20:48.990Z,7.11
2023-11-05T18:23:16.112Z,7.06
2023-11-05T18:25:43.116Z,7.06
2023-11-05T18:28:10.040Z,7.03
2023-11-05T18:30:36.947Z,7.01
2023-11-05T18:33:03.887Z,7.07
2023-11-05T18:35:33.714Z,7.04
2023-11-05T18:38:00.980Z,7.04
2023-11-05T18:40:30.751Z,7.04
2023-11-05T18:42:57.834Z,7.08
2023-11-05T18:45:25.913Z,7.07
2023-11-05T18:47:52.826Z,7.10
2023-11-05T18:50:19.654Z,7.06
2023-11-05T18:52:46.517Z,7.04
2023-11-05T18:55:13.490Z,7.03
2023-11-05T18:57:40.630Z,7.08
2023-11-05T19:00:09.639Z,7.03
2023-11-05T19:02:36.879Z,7.01
2023-11-05T19:05:03.932Z,6.91
2023-11-05T19:07:30.958Z,6.92
2023-11-05T19:09:57.687Z,6.77
2023-11-05T19:12:24.487Z,6.69
2023-11-05T19:14:52.558Z,6.67
2023-11-05T19:17:19.803Z,6.63
2023-11-05T19:19:46.599Z,6.61
2023-11-05T19:22:13.326Z,6.62
2023-11-05T19:24:41.327Z,6.60
2023-11-05T19:27:11.584Z,6.65
2023-11-05T19:29:40.252Z,6.62
2023-11-05T19:32:08.755Z,6.62
2023-11-05T19:34:36.740Z,6.60
2023-11-05T19:37:03.731Z,6.58
2023-11-05T19:39:30.474Z,6.57
2023-11-05T19:41:57.203Z,6.49
2023-11-05T19:44:24.064Z,6.44
2023-11-05T19:46:53.835Z,6.37
2023-11-05T19:49:20.749Z,6.33
2023-11-05T19:51:51.617Z,6.29
2023-11-05T19:54:18.667Z,6.31
2023-11-05T19:56:45.370Z,6.29
2023-11-05T19:59:12.141Z,6.20
2023-11-05T20:01:41.126Z,6.17
2023-11-05T20:04:08.063Z,6.14
2023-11-05T20:06:34.856Z,6.10
2023-11-05T20:09:01.773Z,6.09
2023-11-05T20:11:28.524Z,6.08
2023-11-05T20:13:55.539Z,6.09
2023-11-05T20:16:22.332Z,6.03
2023-11-05T20:18:49.428Z,5.97
2023-11-05T20:21:16.222Z,5.95
2023-11-05T20:23:43.102Z,5.97
2023-11-05T20:26:10.205Z,5.95
2023-11-05T20:28:41.092Z,5.94
2023-11-05T20:31:09.416Z,5.91
2023-11-05T20:33:36.149Z,5.95
2023-11-05T20:36:02.989Z,6.01
2023-11-05T20:38:29.725Z,6.05
2023-11-05T20:40:56.533Z,6.14
2023-11-05T20:43:24.478Z,6.18
2023-11-05T20:45:51.323Z,6.23
2023-11-05T20:48:19.020Z,6.25
2023-11-05T20:50:45.913Z,6.31
2023-11-05T20:53:12.825Z,6.33
2023-11-05T20:55:39.831Z,6.36
2023-11-05T20:58:07.680Z,6.38
2023-11-05T21:00:35.933Z,6.30
2023-11-05T21:03:03.559Z,6.37
2023-11-05T21:05:30.402Z,6.36
2023-11-05T21:07:59.260Z,6.38
2023-11-05T21:10:31.826Z,6.39
2023-11-05T21:13:00.275Z,6.39
2023-11-05T21:15:26.978Z,6.37
2023-11-05T21:17:53.847Z,6.36
2023-11-05T21:20:20.682Z,6.38
2023-11-05T21:22:47.556Z,6.36
2023-11-05T21:25:14.337Z,6.38
2023-11-05T21:27:41.124Z,6.40
2023-11-05T21:30:11.443Z,6.37
2023-11-05T21:32:39.070Z,6.36
2023-11-05T21:35:07.383Z,6.31
2023-11-05T21:37:34.317Z,6.37
2023-11-05T21:40:01.159Z,6.32
2023-11-05T21:42:28.482Z,6.28
2023-11-05T21:44:55.506Z,6.33
2023-11-05T21:47:22.493Z,6.29
2023-11-05T21:49:49.793Z,6.27
2023-11-05T21:52:18.312Z,6.26
2023-11-05T21:54:45.634Z,6.28
2023-11-05T21:57:13.342Z,6.32
2023-11-05T21:59:40.327Z,6.35
2023-11-05T22:02:08.419Z,6.29
2023-11-05T22:04:37.555Z,6.32
2023-11-05T22:07:05.413Z,6.26
2023-11-05T22:09:32.236Z,6.25
2023-11-05T22:11:59.813Z,6.27
2023-11-05T22:14:30.711Z,6.28
2023-11-05T22:16:58.296Z,6.25
2023-11-05T22:19:25.356Z,6.24
2023-11-05T22:21:52.211Z,6.27
2023-11-05T22:24:20.050Z,6.24
2023-11-05T22:26:46.763Z,6.24
2023-11-05T22:29:14.337Z,6.25
2023-11-05T22:31:41.374Z,6.22
2023-11-05T22:34:08.936Z,6.21
2023-11-05T22:36:36.347Z,6.27
2023-11-05T22:39:04.584Z,6.23
2023-11-05T22:41:33.269Z,6.20
2023-11-05T22:44:00.161Z,6.15
2023-11-05T22:46:27.154Z,6.19
2023-11-05T22:48:54.019Z,6.22
2023-11-05T22:51:24.143Z,6.22
2023-11-05T22:53:50.892Z,6.14
2023-11-05T22:56:17.831Z,6.18
2023-11-05T22:58:44.980Z,6.17
2023-11-05T23:01:13.768Z,6.18
2023-11-05T23:03:41.693Z,6.19
2023-11-05T23:06:08.980Z,6.21
2023-11-05T23:08:35.943Z,6.22
2023-11-05T23:11:03.108Z,6.20
2023-11-05T23:13:30.047Z,6.19
2023-11-05T23:15:56.805Z,6.19
2023-11-05T23:18:25.380Z,6.16
2023-11-05T23:20:52.839Z,6.16
2023-11-05T23:23:19.866Z,6.13
2023-11-05T23:25:46.990Z,6.16
2023-11-05T23:28:20.218Z,6.15
2023-11-05T23:30:47.033Z,6.18
2023-11-05T23:33:14.273Z,6.16
2023-11-05T23:35:41.019Z,6.21
2023-11-05T23:38:09.186Z,6.22
2023-11-05T23:40:38.891Z,6.18
2023-11-05T23:43:06.666Z,6.11
2023-11-05T23:45:33.616Z,6.06
2023-11-05T23:48:00.637Z,6.03
2023-11-05T23:50:27.503Z,6.00
2023-11-05T23:52:54.392Z,6.01
2023-11-05T23:55:21.664Z,5.98
2023-11-05T23:57:48.524Z,6.01
